Time;durP1;ratioP1;P1;durP2;ratioP2;P2;SDS_P1;SDS_P2;PMS_P1;PMS_P2;Temp;Humidity;BMP_temperature;BMP_pressure;BME280_temperature;BME280_humidity;BME280_pressure;Samples;Min_cycle;Max_cycle;Signal;HPM_P1;HPM_P2
2023/06/22 00:01:01;;;;;;;;;;;;;;;;;;5113379;28;20386;-72
2023/06/22 00:03:26;;;;;;;;;;;;;;;;;;5113612;28;20006;-73
2023/06/22 00:05:51;;;;;;;;;;;;;;;;;;5114001;28;19947;-73
2023/06/22 00:08:16;;;;;;;;;;;;;;;;;;5114070;28;19964;-72
2023/06/22 00:10:42;;;;;;;;;;;;;;;;;;5114170;28;20401;-72
2023/06/22 00:13:07;;;;;;;;;;;;;;;;;;5113316;28;19955;-72
2023/06/22 00:15:32;;;;;;;;;;;;;;;;;;5114646;28;20023;-74
2023/06/22 00:17:58;;;;;;;;;;;;;;;;;;5069602;28;19928;-72
2023/06/22 00:20:27;;;;;;;;;;;;;;;;;;5094077;28;19919;-73
2023/06/22 00:22:52;;;;;;;;;;;;;;;;;;5094569;28;19912;-72
2023/06/22 00:25:18;;;;;;;;;;;;;;;;;;5096279;28;19962;-71
2023/06/22 00:27:43;;;;;;;;;;;;;;;;;;5096111;28;20329;-71
2023/06/22 00:30:08;;;;;;;;;;;;;;;;;;5077884;28;20018;-71
2023/06/22 00:32:33;;;;;;;;;;;;;;;;;;5096280;28;19963;-71
2023/06/22 00:35:00;;;;;;;;;;;;;;;;;;5105339;28;19916;-73
2023/06/22 00:37:25;;;;;;;;;;;;;;;;;;5098033;28;19933;-73
2023/06/22 00:39:52;;;;;;;;;;;;;;;;;;5098074;28;20315;-73
2023/06/22 00:42:18;;;;;;;;;;;;;;;;;;5116306;28;19927;-73
2023/06/22 00:44:44;;;;;;;;;;;;;;;;;;5116613;28;19916;-71
2023/06/22 00:47:10;;;;;;;;;;;;;;;;;;5116426;28;19922;-71
2023/06/22 00:49:35;;;;;;;;;;;;;;;;;;5116250;28;19912;-73
2023/06/22 00:52:00;;;;;;;;;;;;;;;;;;5116520;28;20429;-73
2023/06/22 00:54:26;;;;;;;;;;;;;;;;;;5097293;28;19911;-70
2023/06/22 00:56:53;;;;;;;;;;;;;;;;;;5097713;28;19951;-72
2023/06/22 00:59:19;;;;;;;;;;;;;;;;;;5115986;28;19926;-72
2023/06/22 01:01:45;;;;;;;;;;;;;;;;;;5115951;28;20002;-72
2023/06/22 01:04:11;;;;;;;;;;;;;;;;;;5114484;28;19973;-71
2023/06/22 01:06:38;;;;;;;;;;;;;;;;;;5097832;28;19916;-72
2023/06/22 01:09:03;;;;;;;;;;;;;;;;;;5115950;28;19961;-72
2023/06/22 01:11:29;;;;;;;;;;;;;;;;;;5115829;28;19912;-73
2023/06/22 01:13:54;;;;;;;;;;;;;;;;;;5115835;28;20014;-72
2023/06/22 01:16:19;;;;;;;;;;;;;;;;;;5115794;28;20024;-72
2023/06/22 01:18:45;;;;;;;;;;;;;;;;;;5115583;28;20367;-73
2023/06/22 01:21:10;;;;;;;;;;;;;;;;;;5115739;28;19916;-72
2023/06/22 01:23:35;;;;;;;;;;;;;;;;;;5097505;28;20014;-73
2023/06/22 01:26:00;;;;;;;;;;;;;;;;;;5115663;28;19926;-73
2023/06/22 01:28:26;;;;;;;;;;;;;;;;;;5115562;28;19912;-73
2023/06/22 01:31:03;;;;;;;;;;;;;;;;;;5115597;28;19923;-73
2023/06/22 01:33:28;;;;;;;;;;;;;;;;;;5115500;28;19969;-73
2023/06/22 01:35:53;;;;;;;;;;;;;;;;;;5115692;28;20032;-72
2023/06/22 01:38:18;;;;;;;;;;;;;;;;;;5114723;28;19927;-72
2023/06/22 01:40:44;;;;;;;;;;;;;;;;;;5113096;28;19918;-73
2023/06/22 01:43:09;;;;;;;;;;;;;;;;;;5115426;28;19920;-72
2023/06/22 01:45:35;;;;;;;;;;;;;;;;;;5097182;28;20367;-67
2023/06/22 01:48:00;;;;;;;;;;;;;;;;;;5115650;28;19911;-76
2023/06/22 01:50:25;;;;;;;;;;;;;;;;;;5115263;28;20014;-76
2023/06/22 01:52:50;;;;;;;;;;;;;;;;;;5096980;28;19965;-77
2023/06/22 01:55:16;;;;;;;;;;;;;;;;;;5115249;28;19981;-77
2023/06/22 01:57:41;;;;;;;;;;;;;;;;;;5114985;28;19920;-76
2023/06/22 02:00:06;;;;;;;;;;;;;;;;;;5080058;28;19977;-75
2023/06/22 02:02:40;;;;;;;;;;;;;;;;;;5115381;28;19916;-76
2023/06/22 02:05:07;;;;;;;;;;;;;;;;;;5113811;28;19922;-76
2023/06/22 02:07:32;;;;;;;;;;;;;;;;;;5080016;28;19916;-75
2023/06/22 02:10:00;;;;;;;;;;;;;;;;;;5096279;28;19922;-73
2023/06/22 02:12:27;;;;;;;;;;;;;;;;;;5114900;28;19920;-73
2023/06/22 02:14:52;;;;;;;;;;;;;;;;;;5114894;28;19912;-73
2023/06/22 02:17:18;;;;;;;;;;;;;;;;;;5096922;28;19920;-73
2023/06/22 02:19:43;;;;;;;;;;;;;;;;;;5114824;28;19960;-73
2023/06/22 02:22:08;;;;;;;;;;;;;;;;;;5096740;28;19923;-73
2023/06/22 02:24:33;;;;;;;;;;;;;;;;;;5096537;28;20277;-73
2023/06/22 02:26:59;;;;;;;;;;;;;;;;;;5095712;28;20334;-73
2023/06/22 02:29:24;;;;;;;;;;;;;;;;;;5095524;28;19922;-73
2023/06/22 02:31:49;;;;;;;;;;;;;;;;;;5096480;28;20329;-73
2023/06/22 02:34:18;;;;;;;;;;;;;;;;;;5114412;28;19920;-73
2023/06/22 02:36:50;;;;;;;;;;;;;;;;;;5096473;28;19924;-73
2023/06/22 02:39:15;;;;;;;;;;;;;;;;;;5079398;28;19920;-73
2023/06/22 02:41:40;;;;;;;;;;;;;;;;;;5114667;28;19965;-73
2023/06/22 02:44:06;;;;;;;;;;;;;;;;;;5096294;28;19947;-73
2023/06/22 02:46:31;;;;;;;;;;;;;;;;;;5114473;28;20375;-73
2023/06/22 02:48:56;;;;;;;;;;;;;;;;;;5096227;28;19916;-73
2023/06/22 02:51:22;;;;;;;;;;;;;;;;;;5096251;28;20007;-73
2023/06/22 02:53:47;;;;;;;;;;;;;;;;;;5096377;28;19915;-73
2023/06/22 02:56:15;;;;;;;;;;;;;;;;;;5095801;28;19957;-73
2023/06/22 02:58:40;;;;;;;;;;;;;;;;;;5095868;28;19927;-74
2023/06/22 03:01:09;;;;;;;;;;;;;;;;;;5095546;28;19989;-71
2023/06/22 03:03:36;;;;;;;;;;;;;;;;;;5090508;28;19916;-74
2023/06/22 03:06:02;;;;;;;;;;;;;;;;;;5090473;28;19955;-73
2023/06/22 03:08:27;;;;;;;;;;;;;;;;;;5091860;28;20020;-73
2023/06/22 03:10:53;;;;;;;;;;;;;;;;;;5091479;28;19915;-72
2023/06/22 03:13:19;;;;;;;;;;;;;;;;;;5092171;28;20252;-72
2023/06/22 03:15:45;;;;;;;;;;;;;;;;;;5091663;28;19911;-73
2023/06/22 03:18:11;;;;;;;;;;;;;;;;;;5091478;28;20161;-73
2023/06/22 03:20:36;;;;;;;;;;;;;;;;;;5091449;28;20018;-74
2023/06/22 03:23:01;;;;;;;;;;;;;;;;;;5108976;28;20432;-73
2023/06/22 03:25:26;;;;;;;;;;;;;;;;;;5091360;28;19920;-74
2023/06/22 03:27:53;;;;;;;;;;;;;;;;;;5091460;28;19920;-74
2023/06/22 03:30:18;;;;;;;;;;;;;;;;;;5091414;28;20002;-73
2023/06/22 03:32:46;;;;;;;;;;;;;;;;;;5091211;28;19916;-74
2023/06/22 03:35:13;;;;;;;;;;;;;;;;;;5091675;28;19969;-73
2023/06/22 03:37:39;;;;;;;;;;;;;;;;;;5090893;28;19941;-73
2023/06/22 03:40:05;;;;;;;;;;;;;;;;;;5107808;28;20386;-73
2023/06/22 03:42:30;;;;;;;;;;;;;;;;;;5091365;28;19926;-73
2023/06/22 03:44:56;;;;;;;;;;;;;;;;;;5109341;28;20014;-73
2023/06/22 03:47:21;;;;;;;;;;;;;;;;;;5091395;28;19919;-73
2023/06/22 03:49:46;;;;;;;;;;;;;;;;;;5109570;28;19938;-73
2023/06/22 03:52:12;;;;;;;;;;;;;;;;;;5109373;28;19923;-73
2023/06/22 03:54:37;;;;;;;;;;;;;;;;;;5091256;28;19916;-74
2023/06/22 03:57:03;;;;;;;;;;;;;;;;;;5109424;28;20410;-72
2023/06/22 03:59:28;;;;;;;;;;;;;;;;;;5109474;28;20014;-73
2023/06/22 04:01:53;;;;;;;;;;;;;;;;;;5089825;28;20272;-73
2023/06/22 04:04:18;;;;;;;;;;;;;;;;;;5090953;28;19916;-73
2023/06/22 04:06:43;;;;;;;;;;;;;;;;;;5109566;28;19924;-75
2023/06/22 04:09:09;;;;;;;;;;;;;;;;;;5109341;28;19907;-73
2023/06/22 04:11:34;;;;;;;;;;;;;;;;;;5109480;28;20379;-72
2023/06/22 04:14:00;;;;;;;;;;;;;;;;;;5108238;28;19919;-72
2023/06/22 04:16:25;;;;;;;;;;;;;;;;;;5108226;28;19920;-73
2023/06/22 04:18:50;;;;;;;;;;;;;;;;;;5109366;28;19926;-73
2023/06/22 04:21:15;;;;;;;;;;;;;;;;;;5108364;28;19973;-73
2023/06/22 04:23:41;;;;;;;;;;;;;;;;;;5106439;28;20014;-73
2023/06/22 04:26:06;;;;;;;;;;;;;;;;;;5103137;28;19951;-75
2023/06/22 04:28:34;;;;;;;;;;;;;;;;;;5108941;28;19916;-74
2023/06/22 04:31:01;;;;;;;;;;;;;;;;;;5090817;28;19959;-75
2023/06/22 04:33:27;;;;;;;;;;;;;;;;;;5109085;28;19969;-73
2023/06/22 04:35:52;;;;;;;;;;;;;;;;;;5106334;28;19915;-72
2023/06/22 04:38:17;;;;;;;;;;;;;;;;;;5108881;28;19959;-74
2023/06/22 04:40:42;;;;;;;;;;;;;;;;;;5108833;28;20332;-73
2023/06/22 04:43:10;;;;;;;;;;;;;;;;;;5109440;28;20006;-73
2023/06/22 04:45:37;;;;;;;;;;;;;;;;;;5107660;28;19919;-73
2023/06/22 04:48:03;;;;;;;;;;;;;;;;;;5108719;28;19980;-71
2023/06/22 04:50:28;;;;;;;;;;;;;;;;;;5109677;28;19920;-71
2023/06/22 04:52:53;;;;;;;;;;;;;;;;;;5110955;28;19919;-73
2023/06/22 04:55:19;;;;;;;;;;;;;;;;;;5112331;28;19916;-74
2023/06/22 04:57:48;;;;;;;;;;;;;;;;;;5112343;28;20366;-73
2023/06/22 05:00:16;;;;;;;;;;;;;;;;;;5107260;28;20007;-72
2023/06/22 05:02:51;;;;;;;;;;;;;;;;;;5085738;28;19943;-73
2023/06/22 05:05:17;;;;;;;;;;;;;;;;;;5104993;28;19923;-73
2023/06/22 05:07:43;;;;;;;;;;;;;;;;;;5102505;28;19920;-72
2023/06/22 05:10:08;;;;;;;;;;;;;;;;;;5106724;28;20408;-73
2023/06/22 05:12:33;;;;;;;;;;;;;;;;;;5111875;28;19912;-72
2023/06/22 05:14:58;;;;;;;;;;;;;;;;;;5097776;28;19916;-74
2023/06/22 05:17:24;;;;;;;;;;;;;;;;;;5098355;28;19920;-73
2023/06/22 05:19:49;;;;;;;;;;;;;;;;;;5089198;28;19954;-74
2023/06/22 05:22:14;;;;;;;;;;;;;;;;;;5109521;28;19915;-74
2023/06/22 05:24:39;;;;;;;;;;;;;;;;;;5095676;28;19923;-74
2023/06/22 05:27:05;;;;;;;;;;;;;;;;;;5105817;28;20676;-73
2023/06/22 05:29:30;;;;;;;;;;;;;;;;;;5111547;28;19923;-72
2023/06/22 05:31:55;;;;;;;;;;;;;;;;;;5108076;28;19915;-70
2023/06/22 05:34:20;;;;;;;;;;;;;;;;;;5103973;28;19923;-70
2023/06/22 05:36:46;;;;;;;;;;;;;;;;;;5106827;28;19928;-70
2023/06/22 05:39:12;;;;;;;;;;;;;;;;;;5093572;28;19921;-71
2023/06/22 05:41:37;;;;;;;;;;;;;;;;;;5100458;28;19919;-70
2023/06/22 05:44:03;;;;;;;;;;;;;;;;;;5111005;28;19920;-70
2023/06/22 05:46:28;;;;;;;;;;;;;;;;;;5108164;28;20370;-70
2023/06/22 05:48:53;;;;;;;;;;;;;;;;;;5110336;28;19939;-70
2023/06/22 05:51:19;;;;;;;;;;;;;;;;;;5109371;28;19919;-69
2023/06/22 05:53:46;;;;;;;;;;;;;;;;;;5093814;28;19927;-70
2023/06/22 05:56:11;;;;;;;;;;;;;;;;;;5079878;28;19980;-72
2023/06/22 05:58:37;;;;;;;;;;;;;;;;;;5108730;28;20010;-72
2023/06/22 06:01:02;;;;;;;;;;;;;;;;;;5107902;28;19926;-72
2023/06/22 06:03:28;;;;;;;;;;;;;;;;;;5091324;28;19922;-72
2023/06/22 06:05:53;;;;;;;;;;;;;;;;;;5102858;28;19920;-72
2023/06/22 06:08:19;;;;;;;;;;;;;;;;;;5102379;28;19922;-73
2023/06/22 06:10:44;;;;;;;;;;;;;;;;;;5105579;28;20547;-72
2023/06/22 06:13:09;;;;;;;;;;;;;;;;;;5089694;28;20014;-72
2023/06/22 06:15:34;;;;;;;;;;;;;;;;;;5089881;28;20344;-71
2023/06/22 06:18:00;;;;;;;;;;;;;;;;;;5089965;28;20291;-70
2023/06/22 06:20:25;;;;;;;;;;;;;;;;;;5097619;28;19947;-70
2023/06/22 06:22:51;;;;;;;;;;;;;;;;;;5104964;28;19923;-70
2023/06/22 06:25:16;;;;;;;;;;;;;;;;;;5094614;28;20532;-70
2023/06/22 06:27:41;;;;;;;;;;;;;;;;;;5103972;28;19920;-71
2023/06/22 06:30:06;;;;;;;;;;;;;;;;;;5107790;28;20374;-70
2023/06/22 06:32:32;;;;;;;;;;;;;;;;;;5095234;28;19961;-70
2023/06/22 06:34:57;;;;;;;;;;;;;;;;;;5106499;28;20397;-70
2023/06/22 06:37:22;;;;;;;;;;;;;;;;;;5105108;28;19932;-70
2023/06/22 06:39:47;;;;;;;;;;;;;;;;;;5098953;28;20221;-70
2023/06/22 06:42:13;;;;;;;;;;;;;;;;;;5089351;28;19912;-70
2023/06/22 06:44:38;;;;;;;;;;;;;;;;;;5071401;28;19916;-69
2023/06/22 06:47:03;;;;;;;;;;;;;;;;;;5089808;28;19928;-69
2023/06/22 06:49:29;;;;;;;;;;;;;;;;;;5089602;28;19924;-70
2023/06/22 06:51:55;;;;;;;;;;;;;;;;;;5094724;28;19997;-69
2023/06/22 06:54:21;;;;;;;;;;;;;;;;;;5097937;28;20274;-70
2023/06/22 06:56:47;;;;;;;;;;;;;;;;;;5091268;28;19926;-70
2023/06/22 06:59:13;;;;;;;;;;;;;;;;;;5110126;28;20422;-70
2023/06/22 07:01:38;;;;;;;;;;;;;;;;;;5109192;28;19916;-71
2023/06/22 07:04:03;;;;;;;;;;;;;;;;;;5109802;28;19915;-69
2023/06/22 07:06:32;;;;;;;;;;;;;;;;;;5109904;28;19915;-70
2023/06/22 07:08:57;;;;;;;;;;;;;;;;;;5106961;28;19916;-70
2023/06/22 07:11:22;;;;;;;;;;;;;;;;;;5101178;28;20405;-70
2023/06/22 07:13:47;;;;;;;;;;;;;;;;;;5099264;28;19916;-71
2023/06/22 07:16:13;;;;;;;;;;;;;;;;;;5100909;28;19911;-70
2023/06/22 07:18:38;;;;;;;;;;;;;;;;;;5109691;28;19919;-69
2023/06/22 07:21:06;;;;;;;;;;;;;;;;;;5109382;28;19980;-69
2023/06/22 07:23:31;;;;;;;;;;;;;;;;;;5106999;28;19969;-72
2023/06/22 07:25:57;;;;;;;;;;;;;;;;;;5109465;28;19916;-71
2023/06/22 07:28:22;;;;;;;;;;;;;;;;;;5105827;28;19955;-71
2023/06/22 07:30:47;;;;;;;;;;;;;;;;;;5106759;28;20298;-70
2023/06/22 07:33:12;;;;;;;;;;;;;;;;;;5090835;28;19916;-69
2023/06/22 07:35:38;;;;;;;;;;;;;;;;;;5105470;28;19919;-70
2023/06/22 07:38:03;;;;;;;;;;;;;;;;;;5106063;28;19920;-71
2023/06/22 07:40:28;;;;;;;;;;;;;;;;;;5107204;28;20371;-70
2023/06/22 07:42:54;;;;;;;;;;;;;;;;;;5107315;28;19911;-70
2023/06/22 07:45:19;;;;;;;;;;;;;;;;;;5101912;28;19951;-70
2023/06/22 07:47:45;;;;;;;;;;;;;;;;;;5098041;28;19919;-70
2023/06/22 07:50:10;;;;;;;;;;;;;;;;;;5107069;28;19927;-71
2023/06/22 07:52:35;;;;;;;;;;;;;;;;;;5107808;28;20278;-71
2023/06/22 07:55:02;;;;;;;;;;;;;;;;;;5106423;28;20005;-71
2023/06/22 07:57:33;;;;;;;;;;;;;;;;;;5082679;28;19923;-70
2023/06/22 07:59:59;;;;;;;;;;;;;;;;;;5108553;28;20263;-70
2023/06/22 08:02:25;;;;;;;;;;;;;;;;;;5073945;28;20013;-70
2023/06/22 08:04:50;;;;;;;;;;;;;;;;;;5108447;28;20005;-70
2023/06/22 08:07:15;;;;;;;;;;;;;;;;;;5108880;28;19922;-70
2023/06/22 08:09:40;;;;;;;;;;;;;;;;;;5108584;28;19920;-70
2023/06/22 08:12:06;;;;;;;;;;;;;;;;;;5109047;28;19919;-70
2023/06/22 08:14:31;;;;;;;;;;;;;;;;;;5108994;28;19916;-70
2023/06/22 08:16:56;;;;;;;;;;;;;;;;;;5108891;28;20367;-69
2023/06/22 08:19:21;;;;;;;;;;;;;;;;;;5108901;28;19916;-71
2023/06/22 08:21:47;;;;;;;;;;;;;;;;;;5108842;28;19974;-70
2023/06/22 08:24:12;;;;;;;;;;;;;;;;;;5107712;28;19920;-70
2023/06/22 08:26:38;;;;;;;;;;;;;;;;;;5112230;28;19923;-70
2023/06/22 08:29:03;;;;;;;;;;;;;;;;;;5096283;28;19924;-70
2023/06/22 08:31:28;;;;;;;;;;;;;;;;;;5091936;28;19978;-70
2023/06/22 08:33:53;;;;;;;;;;;;;;;;;;5091796;28;20011;-71
2023/06/22 08:36:21;;;;;;;;;;;;;;;;;;5102690;28;20707;-70
2023/06/22 08:38:51;;;;;;;;;;;;;;;;;;5104901;28;20393;-72
2023/06/22 08:41:17;;;;;;;;;;;;;;;;;;5111976;28;19922;-70
2023/06/22 08:43:44;;;;;;;;;;;;;;;;;;5112232;28;19965;-70
2023/06/22 08:46:09;;;;;;;;;;;;;;;;;;5110389;28;19922;-71
2023/06/22 08:48:34;;;;;;;;;;;;;;;;;;5111500;28;19919;-70
2023/06/22 08:50:59;;;;;;;;;;;;;;;;;;5111873;28;20002;-70
2023/06/22 08:53:25;;;;;;;;;;;;;;;;;;5093582;28;19923;-71
2023/06/22 08:55:50;;;;;;;;;;;;;;;;;;5091146;28;19916;-70
2023/06/22 08:58:16;;;;;;;;;;;;;;;;;;5090993;28;19942;-70
2023/06/22 09:00:41;;;;;;;;;;;;;;;;;;5091693;28;19927;-70
2023/06/22 09:03:06;;;;;;;;;;;;;;;;;;5107551;28;19918;-71
2023/06/22 09:05:31;;;;;;;;;;;;;;;;;;5111541;28;19916;-71
2023/06/22 09:07:58;;;;;;;;;;;;;;;;;;5111299;28;19916;-71
2023/06/22 09:10:23;;;;;;;;;;;;;;;;;;5110892;28;19914;-71
2023/06/22 09:12:48;;;;;;;;;;;;;;;;;;5111835;28;20018;-70
2023/06/22 09:15:14;;;;;;;;;;;;;;;;;;5111358;28;19961;-70
2023/06/22 09:17:39;;;;;;;;;;;;;;;;;;5110236;28;20039;-71
2023/06/22 09:20:05;;;;;;;;;;;;;;;;;;5111244;28;20359;-71
2023/06/22 09:22:30;;;;;;;;;;;;;;;;;;5111281;28;19919;-71
2023/06/22 09:24:56;;;;;;;;;;;;;;;;;;5111224;28;19968;-71
2023/06/22 09:27:22;;;;;;;;;;;;;;;;;;5111758;28;19916;-72
2023/06/22 09:29:47;;;;;;;;;;;;;;;;;;5093082;28;19916;-72
2023/06/22 09:32:12;;;;;;;;;;;;;;;;;;5101934;28;19917;-70
2023/06/22 09:34:38;;;;;;;;;;;;;;;;;;5091189;28;19924;-70
2023/06/22 09:37:03;;;;;;;;;;;;;;;;;;5091755;28;20280;-71
2023/06/22 09:39:28;;;;;;;;;;;;;;;;;;5099493;28;19930;-70
2023/06/22 09:41:54;;;;;;;;;;;;;;;;;;5102209;28;19926;-71
2023/06/22 09:44:19;;;;;;;;;;;;;;;;;;5110289;28;19919;-72
2023/06/22 09:46:44;;;;;;;;;;;;;;;;;;5105107;28;19919;-71
2023/06/22 09:49:09;;;;;;;;;;;;;;;;;;5090528;28;19923;-71
2023/06/22 09:51:35;;;;;;;;;;;;;;;;;;5090624;28;19919;-71
2023/06/22 09:54:00;;;;;;;;;;;;;;;;;;5095013;28;19959;-71
2023/06/22 09:56:28;;;;;;;;;;;;;;;;;;5104170;28;19922;-71
2023/06/22 09:58:53;;;;;;;;;;;;;;;;;;5110609;28;19920;-71
2023/06/22 10:01:18;;;;;;;;;;;;;;;;;;5110532;28;19922;-71
2023/06/22 10:03:43;;;;;;;;;;;;;;;;;;5111142;28;19962;-71
2023/06/22 10:06:09;;;;;;;;;;;;;;;;;;5110613;28;19915;-71
2023/06/22 10:08:34;;;;;;;;;;;;;;;;;;5110610;28;19912;-71
2023/06/22 10:10:59;;;;;;;;;;;;;;;;;;5110302;28;20393;-70
2023/06/22 10:13:24;;;;;;;;;;;;;;;;;;5110695;28;19999;-71
2023/06/22 10:15:51;;;;;;;;;;;;;;;;;;5108219;28;19923;-71
2023/06/22 10:18:17;;;;;;;;;;;;;;;;;;5108919;28;20494;-72
2023/06/22 10:20:42;;;;;;;;;;;;;;;;;;5108897;28;20022;-72
2023/06/22 10:23:07;;;;;;;;;;;;;;;;;;5108903;28;20361;-71
2023/06/22 10:25:33;;;;;;;;;;;;;;;;;;5103734;28;20383;-71
2023/06/22 10:28:01;;;;;;;;;;;;;;;;;;5100102;28;19924;-70
2023/06/22 10:30:26;;;;;;;;;;;;;;;;;;5110197;28;19916;-71
2023/06/22 10:32:52;;;;;;;;;;;;;;;;;;5109707;28;19919;-70
2023/06/22 10:35:21;;;;;;;;;;;;;;;;;;5112429;28;19912;-71
2023/06/22 10:37:47;;;;;;;;;;;;;;;;;;5108241;28;19920;-69
2023/06/22 10:40:12;;;;;;;;;;;;;;;;;;5108631;28;20273;-79
2023/06/22 10:42:37;;;;;;;;;;;;;;;;;;5102445;28;19915;-69
2023/06/22 10:45:03;;;;;;;;;;;;;;;;;;5069725;28;19916;-68
2023/06/22 10:47:28;;;;;;;;;;;;;;;;;;5088138;28;19916;-72
2023/06/22 10:49:54;;;;;;;;;;;;;;;;;;5076462;28;20562;-68
2023/06/22 10:52:19;;;;;;;;;;;;;;;;;;5101621;28;20740;-68
2023/06/22 10:54:45;;;;;;;;;;;;;;;;;;5106525;28;20371;-69
2023/06/22 10:57:10;;;;;;;;;;;;;;;;;;5103744;28;20718;-68
2023/06/22 10:59:35;;;;;;;;;;;;;;;;;;5107563;28;19920;-69
2023/06/22 11:02:00;;;;;;;;;;;;;;;;;;5109455;28;19927;-69
2023/06/22 11:04:26;;;;;;;;;;;;;;;;;;5105839;28;19916;-69
2023/06/22 11:06:51;;;;;;;;;;;;;;;;;;5110375;28;19927;-69
2023/06/22 11:09:22;;;;;;;;;;;;;;;;;;5110166;28;20274;-69
2023/06/22 11:11:48;;;;;;;;;;;;;;;;;;5100170;28;20005;-68
2023/06/22 11:14:13;;;;;;;;;;;;;;;;;;5100001;28;20843;-68
2023/06/22 11:16:38;;;;;;;;;;;;;;;;;;5093734;28;19920;-69
2023/06/22 11:19:04;;;;;;;;;;;;;;;;;;5109604;28;19920;-71
2023/06/22 11:21:29;;;;;;;;;;;;;;;;;;5106324;28;20397;-70
2023/06/22 11:23:54;;;;;;;;;;;;;;;;;;5104320;28;20354;-69
2023/06/22 11:26:21;;;;;;;;;;;;;;;;;;5105847;28;19973;-70
2023/06/22 11:28:46;;;;;;;;;;;;;;;;;;5098180;28;19926;-69
2023/06/22 11:31:11;;;;;;;;;;;;;;;;;;5098807;28;19915;-70
2023/06/22 11:33:37;;;;;;;;;;;;;;;;;;5100409;28;20018;-68
2023/06/22 11:36:02;;;;;;;;;;;;;;;;;;5109325;28;19915;-68
2023/06/22 11:38:27;;;;;;;;;;;;;;;;;;5109626;28;19924;-67
2023/06/22 11:40:52;;;;;;;;;;;;;;;;;;5106420;28;19916;-69
2023/06/22 11:43:18;;;;;;;;;;;;;;;;;;5107913;28;20462;-69
2023/06/22 11:45:43;;;;;;;;;;;;;;;;;;5108913;28;20044;-68
2023/06/22 11:48:08;;;;;;;;;;;;;;;;;;5089077;28;20283;-68
2023/06/22 11:50:35;;;;;;;;;;;;;;;;;;5090189;28;19956;-68
2023/06/22 11:53:01;;;;;;;;;;;;;;;;;;5105837;28;19922;-69
2023/06/22 11:55:26;;;;;;;;;;;;;;;;;;5108594;28;20318;-68
2023/06/22 11:57:51;;;;;;;;;;;;;;;;;;5107303;28;19927;-72
2023/06/22 12:00:17;;;;;;;;;;;;;;;;;;5103266;28;19943;-69
2023/06/22 12:02:42;;;;;;;;;;;;;;;;;;5100295;28;20067;-68
2023/06/22 12:05:08;;;;;;;;;;;;;;;;;;5113082;28;19911;-68
2023/06/22 12:07:33;;;;;;;;;;;;;;;;;;5108062;28;19919;-69
2023/06/22 12:09:58;;;;;;;;;;;;;;;;;;5108138;28;20418;-70
2023/06/22 12:12:24;;;;;;;;;;;;;;;;;;5092094;28;19924;-68
2023/06/22 12:14:49;;;;;;;;;;;;;;;;;;5094071;28;19916;-69
2023/06/22 12:17:14;;;;;;;;;;;;;;;;;;5101474;28;20367;-71
2023/06/22 12:19:39;;;;;;;;;;;;;;;;;;5097104;28;20290;-69
2023/06/22 12:22:05;;;;;;;;;;;;;;;;;;5094147;28;19912;-71
2023/06/22 12:24:30;;;;;;;;;;;;;;;;;;5102123;28;19920;-69
2023/06/22 12:26:55;;;;;;;;;;;;;;;;;;5107532;28;19959;-70
2023/06/22 12:29:20;;;;;;;;;;;;;;;;;;5109205;28;19967;-71
2023/06/22 12:31:46;;;;;;;;;;;;;;;;;;5098288;28;20327;-71
2023/06/22 12:34:11;;;;;;;;;;;;;;;;;;5107049;28;19923;-71
2023/06/22 12:36:36;;;;;;;;;;;;;;;;;;5106947;28;19961;-71
2023/06/22 12:39:01;;;;;;;;;;;;;;;;;;5109052;28;19924;-70
2023/06/22 12:41:27;;;;;;;;;;;;;;;;;;5110114;28;20205;-71
2023/06/22 12:43:52;;;;;;;;;;;;;;;;;;5091119;28;19920;-71
2023/06/22 12:46:17;;;;;;;;;;;;;;;;;;5109512;28;19916;-71
2023/06/22 12:48:43;;;;;;;;;;;;;;;;;;5110481;28;19927;-71
2023/06/22 12:51:09;;;;;;;;;;;;;;;;;;5105093;28;19924;-71
2023/06/22 12:53:34;;;;;;;;;;;;;;;;;;5110109;28;19951;-71
2023/06/22 12:56:00;;;;;;;;;;;;;;;;;;5109245;28;20401;-75
2023/06/22 12:58:25;;;;;;;;;;;;;;;;;;5107785;28;19927;-71
2023/06/22 13:00:50;;;;;;;;;;;;;;;;;;5104658;28;19927;-75
2023/06/22 13:03:16;;;;;;;;;;;;;;;;;;5105779;28;19922;-70
2023/06/22 13:05:41;;;;;;;;;;;;;;;;;;5105518;28;19919;-71
2023/06/22 13:08:07;;;;;;;;;;;;;;;;;;5105065;28;19969;-72
2023/06/22 13:10:33;;;;;;;;;;;;;;;;;;5107918;28;19926;-71
2023/06/22 13:13:00;;;;;;;;;;;;;;;;;;5107165;28;19919;-75
2023/06/22 13:15:25;;;;;;;;;;;;;;;;;;5108682;28;20458;-71
2023/06/22 13:17:52;;;;;;;;;;;;;;;;;;5084333;28;20367;-71
2023/06/22 13:20:17;;;;;;;;;;;;;;;;;;5099387;28;20339;-71
2023/06/22 13:22:42;;;;;;;;;;;;;;;;;;5107100;28;20003;-71
2023/06/22 13:25:11;;;;;;;;;;;;;;;;;;5107844;28;20382;-72
2023/06/22 13:27:36;;;;;;;;;;;;;;;;;;5108078;28;20069;-72
2023/06/22 13:30:02;;;;;;;;;;;;;;;;;;5107768;28;20070;-72
2023/06/22 13:32:28;;;;;;;;;;;;;;;;;;5107953;28;19923;-75
2023/06/22 13:34:53;;;;;;;;;;;;;;;;;;5105828;28;20053;-72
2023/06/22 13:37:18;;;;;;;;;;;;;;;;;;5105149;28;19919;-71
2023/06/22 13:39:43;;;;;;;;;;;;;;;;;;5108173;28;20014;-71
2023/06/22 13:42:09;;;;;;;;;;;;;;;;;;5107489;28;19923;-72
2023/06/22 13:44:34;;;;;;;;;;;;;;;;;;5109083;28;20450;-72
2023/06/22 13:46:59;;;;;;;;;;;;;;;;;;5109562;28;19916;-72
2023/06/22 13:49:24;;;;;;;;;;;;;;;;;;5109569;28;20012;-70
2023/06/22 13:51:50;;;;;;;;;;;;;;;;;;5106623;28;19916;-70
2023/06/22 13:54:15;;;;;;;;;;;;;;;;;;5106734;28;20282;-72
2023/06/22 13:56:40;;;;;;;;;;;;;;;;;;5100721;28;19919;-71
2023/06/22 13:59:09;;;;;;;;;;;;;;;;;;5106897;28;19923;-74
2023/06/22 14:01:34;;;;;;;;;;;;;;;;;;5107239;28;19939;-74
2023/06/22 14:04:01;;;;;;;;;;;;;;;;;;5103257;28;20450;-72
2023/06/22 14:06:26;;;;;;;;;;;;;;;;;;5101840;28;19923;-70
2023/06/22 14:08:52;;;;;;;;;;;;;;;;;;5100798;28;19912;-71
2023/06/22 14:11:17;;;;;;;;;;;;;;;;;;5106105;28;20006;-72
2023/06/22 14:13:42;;;;;;;;;;;;;;;;;;5108370;28;19919;-75
2023/06/22 14:16:08;;;;;;;;;;;;;;;;;;5104684;28;19969;-73
2023/06/22 14:18:33;;;;;;;;;;;;;;;;;;5089985;28;19963;-72
2023/06/22 14:20:58;;;;;;;;;;;;;;;;;;5106012;28;19922;-71
2023/06/22 14:23:23;;;;;;;;;;;;;;;;;;5109673;28;19916;-71
2023/06/22 14:25:49;;;;;;;;;;;;;;;;;;5110653;28;19924;-72
2023/06/22 14:28:16;;;;;;;;;;;;;;;;;;5109368;28;20458;-71
2023/06/22 14:30:41;;;;;;;;;;;;;;;;;;5110642;28;19920;-71
2023/06/22 14:33:06;;;;;;;;;;;;;;;;;;5110730;28;19908;-72
2023/06/22 14:35:32;;;;;;;;;;;;;;;;;;5110444;28;20367;-72
2023/06/22 14:37:57;;;;;;;;;;;;;;;;;;5108490;28;19947;-72
2023/06/22 14:40:22;;;;;;;;;;;;;;;;;;5090229;28;19960;-71
2023/06/22 14:42:47;;;;;;;;;;;;;;;;;;5110431;28;20022;-71
2023/06/22 14:45:13;;;;;;;;;;;;;;;;;;5110412;28;19916;-72
2023/06/22 14:47:39;;;;;;;;;;;;;;;;;;5109283;28;19912;-72
2023/06/22 14:50:05;;;;;;;;;;;;;;;;;;5110210;28;19923;-71
2023/06/22 14:52:30;;;;;;;;;;;;;;;;;;5090788;28;20482;-71
2023/06/22 14:54:55;;;;;;;;;;;;;;;;;;5108424;28;19933;-71
2023/06/22 14:57:22;;;;;;;;;;;;;;;;;;5108358;28;19912;-72
2023/06/22 14:59:48;;;;;;;;;;;;;;;;;;5108593;28;19978;-72
2023/06/22 15:02:13;;;;;;;;;;;;;;;;;;5108341;28;19991;-71
2023/06/22 15:04:39;;;;;;;;;;;;;;;;;;5108406;28;19919;-71
2023/06/22 15:07:04;;;;;;;;;;;;;;;;;;5108777;28;20428;-74
2023/06/22 15:09:29;;;;;;;;;;;;;;;;;;5110279;28;19923;-73
2023/06/22 15:11:55;;;;;;;;;;;;;;;;;;5109785;28;19916;-72
2023/06/22 15:14:20;;;;;;;;;;;;;;;;;;5109000;28;20012;-71
2023/06/22 15:16:45;;;;;;;;;;;;;;;;;;5109789;28;20287;-73
2023/06/22 15:19:12;;;;;;;;;;;;;;;;;;5110056;28;19924;-71
2023/06/22 15:21:37;;;;;;;;;;;;;;;;;;5109655;28;19923;-73
2023/06/22 15:27:13;;;;;;;;;;;;;;;;;;5109965;28;19927;-74
2023/06/22 15:29:38;;;;;;;;;;;;;;;;;;5109838;28;19915;-71
2023/06/22 15:32:03;;;;;;;;;;;;;;;;;;5109562;28;19918;-71
2023/06/22 15:34:28;;;;;;;;;;;;;;;;;;5109451;28;19920;-72
2023/06/22 15:36:54;;;;;;;;;;;;;;;;;;5109634;28;19912;-71
2023/06/22 15:39:19;;;;;;;;;;;;;;;;;;5109428;28;19920;-72
2023/06/22 15:41:44;;;;;;;;;;;;;;;;;;5109618;28;19934;-72
2023/06/22 15:44:09;;;;;;;;;;;;;;;;;;5109407;28;19916;-72
2023/06/22 15:46:35;;;;;;;;;;;;;;;;;;5109769;28;20363;-71
2023/06/22 15:49:00;;;;;;;;;;;;;;;;;;5109289;28;19948;-71
2023/06/22 15:51:25;;;;;;;;;;;;;;;;;;5109512;28;19947;-72
2023/06/22 15:53:51;;;;;;;;;;;;;;;;;;5109474;28;19970;-71
2023/06/22 15:56:16;;;;;;;;;;;;;;;;;;5109229;28;20387;-72
2023/06/22 15:58:41;;;;;;;;;;;;;;;;;;5109445;28;19923;-72
2023/06/22 16:01:08;;;;;;;;;;;;;;;;;;5109540;28;19998;-72
2023/06/22 16:03:34;;;;;;;;;;;;;;;;;;5103011;28;19998;-73
2023/06/22 16:05:59;;;;;;;;;;;;;;;;;;5097442;28;20011;-71
2023/06/22 16:08:25;;;;;;;;;;;;;;;;;;5090330;28;19916;-71
2023/06/22 16:10:50;;;;;;;;;;;;;;;;;;5093467;28;19977;-71
2023/06/22 16:13:15;;;;;;;;;;;;;;;;;;5102200;28;19962;-70
2023/06/22 16:15:41;;;;;;;;;;;;;;;;;;5101331;28;20286;-70
2023/06/22 16:18:07;;;;;;;;;;;;;;;;;;5100762;28;19923;-73
2023/06/22 16:20:32;;;;;;;;;;;;;;;;;;5107552;28;19926;-69
2023/06/22 16:22:58;;;;;;;;;;;;;;;;;;5108246;28;20442;-71
2023/06/22 16:25:23;;;;;;;;;;;;;;;;;;5095984;28;19916;-70
2023/06/22 16:27:48;;;;;;;;;;;;;;;;;;5102342;28;19916;-70
2023/06/22 16:30:13;;;;;;;;;;;;;;;;;;5109209;28;19916;-70
2023/06/22 16:32:39;;;;;;;;;;;;;;;;;;5109278;28;20417;-70
2023/06/22 16:35:04;;;;;;;;;;;;;;;;;;5109196;28;19916;-69
2023/06/22 16:37:29;;;;;;;;;;;;;;;;;;5109141;28;20170;-69